createdAt,value
2022-10-25T00:00:07.101Z,73.9
2022-10-25T00:01:24.406Z,74
2022-10-25T00:02:41.038Z,74.6
2022-10-25T00:03:57.986Z,75.2
2022-10-25T00:05:15.025Z,75.1
2022-10-25T00:06:31.984Z,75.1
2022-10-25T00:07:50.098Z,75.1
2022-10-25T00:09:06.985Z,75.5
2022-10-25T00:10:25.742Z,75.9
2022-10-25T00:11:42.059Z,76.4
2022-10-25T00:12:59.045Z,77
2022-10-25T00:14:16.001Z,77.4
2022-10-25T00:15:33.027Z,77.8
2022-10-25T00:16:50.028Z,78.2
2022-10-25T00:18:07.004Z,78.4
2022-10-25T00:19:24.020Z,78.8
2022-10-25T00:20:41.004Z,79.4
2022-10-25T00:21:58.575Z,79.8
2022-10-25T00:23:16.008Z,80
2022-10-25T00:24:33.835Z,80.1
2022-10-25T00:25:51.077Z,80
2022-10-25T00:27:08.032Z,80.3
2022-10-25T00:28:25.012Z,80.7
2022-10-25T00:29:42.010Z,80.8
2022-10-25T00:30:59.412Z,81.1
2022-10-25T00:32:16.014Z,81.4
2022-10-25T00:33:33.029Z,81.6
2022-10-25T00:34:50.019Z,81.6
2022-10-25T00:36:07.420Z,81.3
2022-10-25T00:37:25.086Z,80.9
2022-10-25T00:38:42.037Z,80.4
2022-10-25T00:39:59.046Z,79.8
2022-10-25T00:41:16.037Z,79.3
2022-10-25T00:42:33.052Z,79
2022-10-25T00:43:50.016Z,78.7
2022-10-25T00:45:07.064Z,78.1
2022-10-25T00:46:24.077Z,77.8
2022-10-25T00:47:41.128Z,77.6
2022-10-25T00:48:58.043Z,77.4
2022-10-25T00:50:15.042Z,77.4
2022-10-25T00:51:32.044Z,77.2
2022-10-25T00:52:49.082Z,77.1
2022-10-25T00:54:06.033Z,76.8
2022-10-25T00:55:23.061Z,76.6
2022-10-25T00:56:40.157Z,76.4
2022-10-25T00:57:57.146Z,76.3
2022-10-25T00:59:14.079Z,76.1
2022-10-25T01:00:31.123Z,75.7
2022-10-25T01:01:48.219Z,75.2
2022-10-25T01:03:05.095Z,74.6
2022-10-25T01:04:22.090Z,74.2
2022-10-25T01:05:39.104Z,73.8
2022-10-25T01:06:56.119Z,73.6
2022-10-25T01:08:13.478Z,73.1
2022-10-25T01:09:30.071Z,72.9
2022-10-25T01:10:47.475Z,72.8
2022-10-25T01:12:04.451Z,72.8
2022-10-25T01:13:21.114Z,72.7
2022-10-25T01:14:38.089Z,72.6
2022-10-25T01:15:55.136Z,72.4
2022-10-25T01:17:12.083Z,72.4
2022-10-25T01:18:29.105Z,72.3
2022-10-25T01:19:46.086Z,72.3
2022-10-25T01:21:03.167Z,72.3
2022-10-25T01:22:20.089Z,73
2022-10-25T01:23:37.089Z,73.7
2022-10-25T01:24:54.085Z,74.5
2022-10-25T01:26:11.123Z,75.3
2022-10-25T01:27:28.112Z,75.9
2022-10-25T01:28:45.155Z,76.1
2022-10-25T01:30:02.212Z,75.9
2022-10-25T01:31:19.189Z,75.5
2022-10-25T01:32:36.120Z,74.9
2022-10-25T01:33:53.118Z,74.4
2022-10-25T01:35:10.112Z,74.3
2022-10-25T01:36:27.181Z,74.3
2022-10-25T01:37:44.341Z,74.4
2022-10-25T01:39:01.126Z,74.9
2022-10-25T01:40:18.119Z,75.5
2022-10-25T01:41:36.194Z,76
2022-10-25T01:42:53.162Z,76.2
2022-10-25T01:44:10.229Z,76.1
2022-10-25T01:45:27.133Z,76.1
2022-10-25T01:46:44.145Z,76.2
2022-10-25T01:48:01.160Z,76.3
2022-10-25T01:49:18.156Z,75.8
2022-10-25T01:50:35.152Z,75.6
2022-10-25T01:51:52.480Z,75.3
2022-10-25T01:53:09.270Z,74.9
2022-10-25T01:54:26.177Z,74.5
2022-10-25T01:55:43.150Z,73.9
2022-10-25T01:57:00.179Z,73.4
2022-10-25T01:58:17.200Z,73
2022-10-25T01:59:34.485Z,73
2022-10-25T02:00:51.161Z,73.7
2022-10-25T02:02:08.208Z,74.1
2022-10-25T02:03:25.153Z,74.2
2022-10-25T02:04:42.201Z,73.8
2022-10-25T02:06:00.206Z,73.3
2022-10-25T02:07:17.200Z,73.4
2022-10-25T02:08:34.170Z,73.3
2022-10-25T02:09:51.194Z,73.2
2022-10-25T02:11:08.158Z,73.4
2022-10-25T02:12:25.213Z,73.4
2022-10-25T02:13:42.148Z,74.3
2022-10-25T02:14:59.197Z,74.8
2022-10-25T02:16:16.169Z,74.7
2022-10-25T02:17:33.174Z,74.3
2022-10-25T02:18:50.169Z,74
2022-10-25T02:20:07.314Z,73.9
2022-10-25T02:21:24.210Z,73.8
2022-10-25T02:22:41.197Z,73.9
2022-10-25T02:23:58.195Z,73.7
2022-10-25T02:25:15.295Z,73.8
2022-10-25T02:26:32.211Z,73.8
2022-10-25T02:27:49.528Z,73.6
2022-10-25T02:29:06.218Z,73.5
2022-10-25T02:30:23.275Z,73.8
2022-10-25T02:31:41.266Z,74.6
2022-10-25T02:32:58.207Z,75.5
2022-10-25T02:34:15.210Z,76.5
2022-10-25T02:35:32.232Z,77.1
2022-10-25T02:36:49.188Z,78
2022-10-25T02:38:06.212Z,78.6
2022-10-25T02:39:25.422Z,78.8
2022-10-25T02:40:40.344Z,78.5
2022-10-25T02:41:57.218Z,78.4
2022-10-25T02:43:14.206Z,78.4
2022-10-25T02:44:31.208Z,78.4
2022-10-25T02:45:48.443Z,78.4
2022-10-25T02:47:05.248Z,78
2022-10-25T02:48:22.208Z,77.7
2022-10-25T02:49:39.230Z,77.6
2022-10-25T02:50:56.230Z,77.4
2022-10-25T02:52:13.270Z,77.4
2022-10-25T02:53:30.226Z,77.3
2022-10-25T02:54:47.253Z,77.3
2022-10-25T02:56:04.245Z,77.3
2022-10-25T02:57:21.542Z,77.3
2022-10-25T02:58:38.219Z,77.5
2022-10-25T02:59:55.257Z,77.7
2022-10-25T03:01:12.390Z,77.7
2022-10-25T03:02:29.238Z,77.8
2022-10-25T03:03:46.233Z,77.9
2022-10-25T03:05:03.283Z,77.9
2022-10-25T03:06:20.252Z,77.7
2022-10-25T03:07:37.236Z,77.6
2022-10-25T03:08:54.253Z,77.3
2022-10-25T03:10:11.295Z,77
2022-10-25T03:11:28.275Z,77
2022-10-25T03:12:45.473Z,76.8
2022-10-25T03:14:02.303Z,76.7
2022-10-25T03:15:19.292Z,76.7
2022-10-25T03:16:36.383Z,76.7
2022-10-25T03:17:53.267Z,76.9
2022-10-25T03:19:10.268Z,77.1
2022-10-25T03:20:27.304Z,77.1
2022-10-25T03:21:44.287Z,77.2
2022-10-25T03:23:01.315Z,77.1
2022-10-25T03:24:18.290Z,77.1
2022-10-25T03:25:35.304Z,77
2022-10-25T03:26:52.298Z,76.8
2022-10-25T03:28:09.380Z,76.8
2022-10-25T03:29:26.301Z,76.3
2022-10-25T03:30:43.338Z,75.7
2022-10-25T03:32:00.327Z,75.3
2022-10-25T03:33:17.392Z,75.1
2022-10-25T03:34:34.288Z,74.9
2022-10-25T03:35:51.283Z,75.2
2022-10-25T03:37:08.297Z,75.6
2022-10-25T03:38:25.381Z,76.3
2022-10-25T03:39:42.300Z,77.1
2022-10-25T03:40:59.315Z,78
2022-10-25T03:42:16.317Z,78.5
2022-10-25T03:43:33.358Z,78.7
2022-10-25T03:44:50.347Z,78.4
2022-10-25T03:46:07.354Z,78.2
2022-10-25T03:47:24.353Z,77.9
2022-10-25T03:48:41.303Z,77.9
2022-10-25T03:49:58.394Z,77.7
2022-10-25T03:51:15.324Z,77.5
2022-10-25T03:52:32.311Z,77.1
2022-10-25T03:53:49.317Z,76.9
2022-10-25T03:55:06.339Z,76.8
2022-10-25T03:56:23.378Z,76.1
2022-10-25T03:57:40.336Z,75.7
2022-10-25T03:58:57.322Z,75.7
2022-10-25T04:00:14.380Z,75.7
2022-10-25T04:01:31.464Z,75.4
2022-10-25T04:02:48.405Z,74.9
2022-10-25T04:04:05.325Z,74.8
2022-10-25T04:05:22.326Z,74.6
2022-10-25T04:06:39.369Z,74.4
2022-10-25T04:07:56.337Z,74.5
2022-10-25T04:09:13.334Z,74.3
2022-10-25T04:10:30.373Z,74.2
2022-10-25T04:11:47.376Z,74.1
2022-10-25T04:13:04.369Z,73.8
2022-10-25T04:14:21.343Z,73.5
2022-10-25T04:15:38.430Z,73.4
2022-10-25T04:16:55.378Z,73.1
2022-10-25T04:18:12.374Z,72.9
2022-10-25T04:19:29.362Z,72.8
2022-10-25T04:20:46.394Z,72.8
2022-10-25T04:22:03.425Z,73.1
2022-10-25T04:23:20.383Z,72.8
2022-10-25T04:24:37.368Z,72.8
2022-10-25T04:25:54.811Z,72.6
2022-10-25T04:27:12.373Z,72.5
2022-10-25T04:28:29.378Z,72.8
2022-10-25T04:29:46.384Z,73.3
2022-10-25T04:31:03.449Z,74.3
2022-10-25T04:33:37.424Z,76.1
2022-10-25T04:34:54.378Z,76.7
2022-10-25T04:36:11.424Z,77.1
2022-10-25T04:37:28.443Z,77.4
2022-10-25T04:38:45.392Z,77.7
2022-10-25T04:40:02.484Z,78.1
2022-10-25T04:41:19.419Z,78.3
2022-10-25T04:42:36.389Z,78.3
2022-10-25T04:43:53.386Z,78
2022-10-25T04:45:10.425Z,77.6
2022-10-25T04:46:27.398Z,76.9
2022-10-25T04:47:44.397Z,76.2
2022-10-25T04:49:01.486Z,75.9
2022-10-25T04:50:18.400Z,75.5
2022-10-25T04:51:35.453Z,75.2
2022-10-25T04:52:52.409Z,75.3
2022-10-25T04:54:09.421Z,75.2
2022-10-25T04:55:26.387Z,75.2
2022-10-25T04:56:43.484Z,75.2
2022-10-25T04:58:00.480Z,74.9
2022-10-25T04:59:17.424Z,74.7
2022-10-25T05:00:34.409Z,74.3
2022-10-25T05:03:09.543Z,74.2
2022-10-25T05:04:25.459Z,74.1
2022-10-25T05:05:42.544Z,74.1
2022-10-25T05:06:59.435Z,74.4
2022-10-25T05:08:16.458Z,74.5
2022-10-25T05:09:33.442Z,74.7
2022-10-25T05:10:50.462Z,75.1
2022-10-25T05:12:07.460Z,75.7
2022-10-25T05:13:24.505Z,76.6
2022-10-25T05:14:41.432Z,76.8
2022-10-25T05:15:58.449Z,77
2022-10-25T05:17:15.434Z,76.9
2022-10-25T05:18:32.470Z,76.9
2022-10-25T05:19:49.496Z,76.9
2022-10-25T05:21:06.500Z,76.7
2022-10-25T05:22:23.455Z,77
2022-10-25T05:23:40.461Z,77.4
2022-10-25T05:24:57.492Z,77.9
2022-10-25T05:26:14.496Z,78.4
2022-10-25T05:27:31.538Z,79.1
2022-10-25T05:28:48.452Z,79.4
2022-10-25T05:30:05.694Z,79.8
2022-10-25T05:31:22.499Z,80
2022-10-25T05:32:39.541Z,80
2022-10-25T05:33:56.465Z,79.9
2022-10-25T05:35:13.510Z,79.4
2022-10-25T05:36:30.644Z,78.8
2022-10-25T05:37:47.485Z,78.2
2022-10-25T05:39:04.567Z,77.8
2022-10-25T05:40:21.756Z,77.1
2022-10-25T05:41:38.562Z,76.6
2022-10-25T05:42:55.517Z,76.3
2022-10-25T05:44:12.505Z,76
2022-10-25T05:45:29.504Z,75.4
2022-10-25T05:46:46.493Z,75.1
2022-10-25T05:48:03.542Z,74.8
2022-10-25T05:49:20.951Z,74.4
2022-10-25T05:50:38.515Z,74.1
2022-10-25T05:51:55.491Z,73.8
2022-10-25T05:53:12.524Z,73.6
2022-10-25T05:54:29.494Z,73.3
2022-10-25T05:55:46.551Z,73.1
2022-10-25T05:57:03.512Z,72.7
2022-10-25T05:58:20.675Z,72.5
2022-10-25T05:59:37.548Z,72.4
2022-10-25T06:00:54.581Z,72.1
2022-10-25T06:02:11.630Z,71.9
2022-10-25T06:03:28.583Z,71.8
2022-10-25T06:04:48.946Z,71.6
2022-10-25T06:06:02.771Z,71.5
2022-10-25T06:07:19.555Z,71.5
2022-10-25T06:08:36.533Z,71.7
2022-10-25T06:09:53.518Z,71.6
2022-10-25T06:11:10.550Z,71.5
2022-10-25T06:12:27.582Z,71.4
2022-10-25T06:13:44.531Z,71.1
2022-10-25T06:15:01.520Z,70.9
2022-10-25T06:16:18.581Z,71
2022-10-25T06:17:35.565Z,71.3
2022-10-25T06:18:52.534Z,71.9
2022-10-25T06:20:09.523Z,72.4
2022-10-25T06:21:26.585Z,73
2022-10-25T06:22:43.694Z,73.3
2022-10-25T06:24:00.556Z,73.1
2022-10-25T06:25:17.681Z,73.3
2022-10-25T06:26:34.543Z,72.8
2022-10-25T06:27:51.637Z,72.3
2022-10-25T06:29:08.568Z,71.8
2022-10-25T06:30:25.613Z,71.7
2022-10-25T06:31:42.556Z,70.9
2022-10-25T06:33:00.143Z,70.3
2022-10-25T06:34:16.617Z,70.2
2022-10-25T06:35:33.569Z,70.4
2022-10-25T06:36:50.627Z,70.4
2022-10-25T06:38:07.576Z,70
2022-10-25T06:39:24.635Z,70.1
2022-10-25T06:40:41.585Z,70.2
2022-10-25T06:41:58.610Z,70.3
2022-10-25T06:43:15.587Z,70.2
2022-10-25T06:44:32.667Z,69.9
2022-10-25T06:45:49.626Z,70.1
2022-10-25T06:47:17.278Z,69.1
2022-10-25T06:48:23.577Z,68
2022-10-25T06:49:40.630Z,66
2022-10-25T06:50:57.576Z,63.3
2022-10-25T06:52:14.679Z,60.7
2022-10-25T06:53:31.650Z,57.7
2022-10-25T06:54:48.602Z,56
2022-10-25T06:56:06.051Z,55
2022-10-25T06:57:22.607Z,52.9
2022-10-25T06:58:39.619Z,51.7
2022-10-25T06:59:56.652Z,50.5
2022-10-25T07:01:13.733Z,50
2022-10-25T07:02:30.740Z,49.2
2022-10-25T07:03:47.669Z,48.7
2022-10-25T07:05:04.769Z,47.9
2022-10-25T07:06:21.738Z,47.3
2022-10-25T07:07:38.636Z,47.1
2022-10-25T07:08:55.595Z,46.9
2022-10-25T07:10:12.776Z,46.8
2022-10-25T07:11:29.674Z,46.8
2022-10-25T07:12:47.469Z,46.5
2022-10-25T07:14:04.667Z,46.6
2022-10-25T07:15:21.695Z,46.9
2022-10-25T07:16:38.698Z,47.2
2022-10-25T07:17:55.645Z,47.3
2022-10-25T07:19:12.645Z,46.9
2022-10-25T07:20:29.617Z,46.7
2022-10-25T07:21:46.668Z,46.8
2022-10-25T07:23:05.418Z,46.9
2022-10-25T07:24:20.646Z,47.5
2022-10-25T07:25:37.645Z,48.7
2022-10-25T07:26:54.720Z,50
2022-10-25T07:28:11.679Z,52.1
2022-10-25T07:29:28.672Z,54.4
2022-10-25T07:30:45.680Z,56.7
2022-10-25T07:32:02.769Z,59.4
2022-10-25T07:33:19.803Z,61.4
2022-10-25T07:34:36.820Z,63
2022-10-25T07:36:06.378Z,64.4
2022-10-25T07:37:10.736Z,65.6
2022-10-25T07:38:28.038Z,66.3
2022-10-25T07:39:44.709Z,67.4
2022-10-25T07:41:01.692Z,67.9
2022-10-25T07:42:18.726Z,68.2
2022-10-25T07:43:35.723Z,68.2
2022-10-25T07:44:52.666Z,67.8
2022-10-25T07:46:09.684Z,67.5
2022-10-25T07:47:26.754Z,67.3
2022-10-25T07:48:43.707Z,66.7
2022-10-25T07:50:00.712Z,65.3
2022-10-25T07:51:17.670Z,63.1
2022-10-25T07:52:34.706Z,61.8
2022-10-25T07:53:52.570Z,61.6
2022-10-25T07:55:09.712Z,62
2022-10-25T07:56:27.583Z,62.2
2022-10-25T07:57:44.843Z,62.4
2022-10-25T07:59:01.716Z,63.1
2022-10-25T08:00:18.798Z,63.1
2022-10-25T08:01:35.769Z,63
2022-10-25T08:02:52.849Z,62.5
2022-10-25T08:04:09.701Z,62.3
2022-10-25T08:05:26.734Z,62.3
2022-10-25T08:06:43.780Z,62.6
2022-10-25T08:08:00.807Z,62.7
2022-10-25T08:09:33.583Z,62.7
2022-10-25T08:10:34.810Z,63.2
2022-10-25T08:11:51.762Z,63.4
2022-10-25T08:13:08.753Z,63.6
2022-10-25T08:14:25.723Z,63.6
2022-10-25T08:15:42.757Z,63.9
2022-10-25T08:16:59.741Z,64.4
2022-10-25T08:18:16.741Z,64.5
2022-10-25T08:19:33.989Z,64.6
2022-10-25T08:21:06.725Z,64.6
2022-10-25T08:22:09.614Z,64.3
2022-10-25T08:23:26.990Z,64.2
2022-10-25T08:24:43.889Z,64.3
2022-10-25T08:26:00.788Z,64
2022-10-25T08:27:17.787Z,64
2022-10-25T08:28:34.801Z,64
2022-10-25T08:29:52.996Z,63.9
2022-10-25T08:31:09.737Z,63.7
2022-10-25T08:32:28.353Z,63.6
2022-10-25T08:33:46.653Z,63.6
2022-10-25T08:35:05.017Z,63.6
2022-10-25T08:36:22.406Z,63.7
2022-10-25T08:37:38.760Z,63.3
2022-10-25T08:38:56.055Z,62.9
2022-10-25T08:40:13.465Z,62.7
2022-10-25T08:41:30.799Z,62.2
2022-10-25T08:42:47.775Z,61.8
2022-10-25T08:44:04.781Z,60.5
2022-10-25T08:45:21.823Z,58.4
2022-10-25T08:46:38.853Z,56.9
2022-10-25T08:47:56.096Z,55.2
2022-10-25T08:49:14.037Z,54.4
2022-10-25T08:50:31.303Z,53.5
2022-10-25T08:51:47.867Z,52.6
2022-10-25T08:53:04.814Z,53.3
2022-10-25T08:54:22.581Z,53.8
2022-10-25T08:55:44.501Z,55
2022-10-25T08:57:14.204Z,56.6
2022-10-25T08:58:13.884Z,57.3
2022-10-25T08:59:30.819Z,58.1
2022-10-25T09:00:47.785Z,58.3
2022-10-25T09:02:05.031Z,58.5
2022-10-25T09:03:22.323Z,59.2
2022-10-25T09:04:39.802Z,59.2
2022-10-25T09:05:56.890Z,59.4
2022-10-25T09:07:15.167Z,59.7
2022-10-25T09:08:31.888Z,60.3
2022-10-25T09:09:48.823Z,60.6
2022-10-25T09:11:05.982Z,60.4
2022-10-25T09:12:23.291Z,59.7
2022-10-25T09:13:40.151Z,59.2
2022-10-25T09:14:57.345Z,58.7
2022-10-25T09:16:14.875Z,57.7
2022-10-25T09:17:31.853Z,56.2
2022-10-25T09:18:48.852Z,55.2
2022-10-25T09:20:05.928Z,54.4
2022-10-25T09:21:23.941Z,53.4
2022-10-25T09:22:40.823Z,52
2022-10-25T09:23:58.394Z,51.3
2022-10-25T09:25:15.380Z,50.5
2022-10-25T09:26:32.858Z,51
2022-10-25T09:27:50.115Z,52.2
2022-10-25T09:29:08.131Z,53.7
2022-10-25T09:30:24.975Z,53.4
2022-10-25T09:31:42.632Z,53.1
2022-10-25T09:32:59.984Z,52.5
2022-10-25T09:34:16.990Z,52.3
2022-10-25T09:35:33.891Z,51.7
2022-10-25T09:36:51.369Z,51.5
2022-10-25T09:38:09.468Z,51.3
2022-10-25T09:39:26.357Z,51.2
2022-10-25T09:40:47.504Z,51.3
2022-10-25T09:41:59.979Z,50.2
2022-10-25T09:43:17.069Z,49.6
2022-10-25T09:44:34.293Z,49.3
2022-10-25T09:45:52.088Z,48.8
2022-10-25T09:47:09.962Z,48.1
2022-10-25T09:48:27.100Z,47.7
2022-10-25T09:49:45.104Z,47.6
2022-10-25T09:51:01.932Z,47.8
2022-10-25T09:52:19.069Z,48.4
2022-10-25T09:53:35.889Z,49.2
2022-10-25T09:54:53.193Z,50.3
2022-10-25T09:56:09.937Z,50.8
2022-10-25T09:57:26.941Z,51.9
2022-10-25T09:58:43.971Z,53.3
2022-10-25T10:00:00.924Z,54.4
2022-10-25T10:01:18.103Z,54.4
2022-10-25T10:02:35.109Z,53.8
2022-10-25T10:03:53.143Z,53.4
2022-10-25T10:05:08.930Z,53.4
2022-10-25T10:06:25.951Z,53
2022-10-25T10:07:44.165Z,53.2
2022-10-25T10:09:01.178Z,53.4
2022-10-25T10:10:19.359Z,54.3
2022-10-25T10:11:38.391Z,55
2022-10-25T10:12:56.508Z,55
2022-10-25T10:14:13.942Z,55.3
2022-10-25T10:15:36.612Z,55.5
2022-10-25T10:16:55.210Z,55.2
2022-10-25T10:18:11.933Z,54.4
2022-10-25T10:19:29.003Z,54.6
2022-10-25T10:20:45.987Z,55.2
2022-10-25T10:22:03.034Z,55.2
2022-10-25T10:23:22.595Z,54.7
2022-10-25T10:24:39.938Z,54
2022-10-25T10:25:57.060Z,53.4
2022-10-25T10:27:13.972Z,53.4
2022-10-25T10:28:31.012Z,53.1
2022-10-25T10:29:51.002Z,52.6
2022-10-25T10:31:08.307Z,51.8
2022-10-25T10:32:27.829Z,51.1
2022-10-25T10:33:47.678Z,50.8
2022-10-25T10:35:07.126Z,50.2
2022-10-25T10:36:26.264Z,49.8
2022-10-25T10:37:43.098Z,49.4
2022-10-25T10:39:02.406Z,48.9
2022-10-25T10:40:19.178Z,49.1
2022-10-25T10:41:36.033Z,49.3
2022-10-25T10:42:53.780Z,49.4
2022-10-25T10:44:10.041Z,49.6
2022-10-25T10:45:27.016Z,50.5
2022-10-25T10:46:43.959Z,51
2022-10-25T10:48:00.973Z,51.7
2022-10-25T10:49:18.111Z,52.6
2022-10-25T10:50:35.031Z,52.9
2022-10-25T10:51:52.039Z,53.1
2022-10-25T10:53:09.155Z,53.1
2022-10-25T10:54:26.041Z,53.5
2022-10-25T10:55:43.402Z,54.2
2022-10-25T10:56:59.991Z,55
2022-10-25T10:58:17.040Z,55.5
2022-10-25T10:59:34.072Z,55.8
2022-10-25T11:00:51.047Z,55.6
2022-10-25T11:02:08.169Z,55.5
2022-10-25T11:03:25.012Z,55.6
2022-10-25T11:04:42.146Z,55.2
2022-10-25T11:05:59.023Z,55.3
2022-10-25T11:07:16.015Z,55.7
2022-10-25T11:08:33.063Z,56.1
2022-10-25T11:09:50.070Z,56
2022-10-25T11:11:07.119Z,56.3
2022-10-25T11:12:24.053Z,56.5
2022-10-25T11:13:41.035Z,56.8
2022-10-25T11:14:58.344Z,57.2
2022-10-25T11:16:15.154Z,57.8
2022-10-25T11:17:32.131Z,58.3
2022-10-25T11:18:49.161Z,58.9
2022-10-25T11:20:06.198Z,59.1
2022-10-25T11:21:23.091Z,58.5
2022-10-25T11:22:40.284Z,57.1
2022-10-25T11:23:57.106Z,55.3
2022-10-25T11:25:14.113Z,54.8
2022-10-25T11:26:31.096Z,54.5
2022-10-25T11:27:48.338Z,54.4
2022-10-25T11:29:05.182Z,53.7
2022-10-25T11:30:22.852Z,53.1
2022-10-25T11:31:40.174Z,53.5
2022-10-25T11:32:57.109Z,54.3
2022-10-25T11:34:14.312Z,54.9
2022-10-25T11:35:31.161Z,55
2022-10-25T11:36:48.132Z,54.2
2022-10-25T11:38:05.170Z,52.9
2022-10-25T11:39:22.122Z,52
2022-10-25T11:40:39.049Z,51.9
2022-10-25T11:41:56.123Z,52.3
2022-10-25T11:43:13.221Z,52.9
2022-10-25T11:44:30.087Z,53.4
2022-10-25T11:45:47.243Z,53.6
2022-10-25T11:47:04.278Z,53.5
2022-10-25T11:48:21.082Z,52.6
2022-10-25T11:49:38.168Z,51.5
2022-10-25T11:50:55.227Z,49.9
2022-10-25T11:52:12.217Z,48.9
2022-10-25T11:53:29.154Z,48
2022-10-25T11:54:46.115Z,47.2
2022-10-25T11:56:03.220Z,46.4
2022-10-25T11:57:20.201Z,46
2022-10-25T11:58:37.124Z,45.5
2022-10-25T11:59:54.108Z,46.1
2022-10-25T12:01:11.503Z,46.1
2022-10-25T12:02:28.229Z,46.4
2022-10-25T12:03:45.475Z,46.9
2022-10-25T12:05:02.105Z,47.3
2022-10-25T12:06:19.133Z,46.9
2022-10-25T12:07:36.174Z,47
2022-10-25T12:08:53.152Z,46.9
2022-10-25T12:10:10.205Z,46.1
2022-10-25T12:11:27.111Z,45.5
2022-10-25T12:12:45.103Z,45.6
2022-10-25T12:14:02.118Z,45.1
2022-10-25T12:15:19.943Z,44.6
2022-10-25T12:16:37.388Z,44.4
2022-10-25T12:17:54.621Z,44.5
2022-10-25T12:19:12.283Z,45.1
2022-10-25T12:20:30.004Z,45.4
2022-10-25T12:21:47.191Z,45.8
2022-10-25T12:23:04.180Z,45.7
2022-10-25T12:24:21.165Z,45.9
2022-10-25T12:25:38.129Z,46.8
2022-10-25T12:26:55.224Z,47.6
2022-10-25T12:28:12.228Z,48.4
2022-10-25T12:29:29.735Z,48.4
2022-10-25T12:30:46.258Z,48.4
2022-10-25T12:32:03.488Z,48.5
2022-10-25T12:33:20.238Z,48.9
2022-10-25T12:34:37.157Z,49.3
2022-10-25T12:35:54.153Z,49.5
2022-10-25T12:37:11.171Z,49.9
2022-10-25T12:38:28.279Z,50.4
2022-10-25T12:39:45.169Z,50.4
2022-10-25T12:41:02.201Z,50.7
2022-10-25T12:42:19.176Z,50.9
2022-10-25T12:43:36.200Z,50.8
2022-10-25T12:44:53.157Z,50.5
2022-10-25T12:46:10.673Z,50.3
2022-10-25T12:47:27.321Z,50.1
2022-10-25T12:48:44.174Z,50
2022-10-25T12:50:01.227Z,49.6
2022-10-25T12:51:18.926Z,49.4
2022-10-25T12:52:35.208Z,49.4
2022-10-25T12:53:52.180Z,49.4
2022-10-25T12:55:09.851Z,49.7
2022-10-25T12:56:27.263Z,50.2
2022-10-25T12:57:47.454Z,50.6
2022-10-25T12:59:01.167Z,50.8
2022-10-25T13:00:18.394Z,51
2022-10-25T13:01:35.506Z,51.2
2022-10-25T13:02:52.294Z,50.5
2022-10-25T13:04:09.251Z,50.2
2022-10-25T13:05:26.209Z,50.1
2022-10-25T13:06:43.291Z,50.2
2022-10-25T13:08:00.218Z,50.3
2022-10-25T13:09:17.209Z,50.6
2022-10-25T13:10:34.189Z,51.2
2022-10-25T13:11:52.148Z,51
2022-10-25T13:13:08.238Z,51.7
2022-10-25T13:14:25.261Z,52.5
2022-10-25T13:15:42.267Z,53.1
2022-10-25T13:16:59.255Z,53.6
2022-10-25T13:18:20.011Z,53.5
2022-10-25T13:19:53.385Z,53.4
2022-10-25T13:20:50.412Z,53.7
2022-10-25T13:22:07.246Z,54.1
2022-10-25T13:23:24.732Z,54.6
2022-10-25T13:24:42.357Z,55
2022-10-25T13:25:59.415Z,55.2
2022-10-25T13:27:16.256Z,55.4
2022-10-25T13:28:36.098Z,55.4
2022-10-25T13:29:50.285Z,55.2
2022-10-25T13:31:07.351Z,55.1
2022-10-25T13:32:24.287Z,55.1
2022-10-25T13:33:41.367Z,54.9
2022-10-25T13:34:58.381Z,54.6
2022-10-25T13:36:15.280Z,54.6
2022-10-25T13:37:32.306Z,54.5
2022-10-25T13:38:50.298Z,54.4
2022-10-25T13:40:07.327Z,54.2
2022-10-25T13:41:25.368Z,54.1
2022-10-25T13:42:42.415Z,54
2022-10-25T13:43:59.494Z,53.9
2022-10-25T13:45:16.257Z,54.3
2022-10-25T13:46:33.349Z,54.7
2022-10-25T13:47:50.293Z,55
2022-10-25T13:49:07.434Z,55.3
2022-10-25T13:50:24.250Z,55.6
2022-10-25T13:51:41.286Z,56.3
2022-10-25T13:53:00.173Z,56.6
2022-10-25T13:54:15.314Z,56.9
2022-10-25T13:55:32.269Z,57.4
2022-10-25T13:56:49.258Z,57.6
2022-10-25T13:58:06.340Z,57.8
2022-10-25T13:59:23.442Z,57.8
2022-10-25T14:00:40.533Z,58.1
2022-10-25T14:01:57.510Z,58
2022-10-25T14:03:14.292Z,57.7
2022-10-25T14:04:31.407Z,57.5
2022-10-25T14:05:48.925Z,57.6
2022-10-25T14:07:06.362Z,57.4
2022-10-25T14:08:23.417Z,57.4
2022-10-25T14:09:40.311Z,57.7
2022-10-25T14:10:57.678Z,57.7
2022-10-25T14:12:15.567Z,57.7
2022-10-25T14:13:31.296Z,57.8
2022-10-25T14:14:48.371Z,58
2022-10-25T14:16:05.338Z,57.8
2022-10-25T14:17:22.294Z,57.7
2022-10-25T14:18:39.320Z,57.8
2022-10-25T14:19:56.416Z,57.8
2022-10-25T14:21:13.331Z,58
2022-10-25T14:22:31.908Z,58.4
2022-10-25T14:23:47.726Z,58.6
2022-10-25T14:25:04.340Z,58.4
2022-10-25T14:26:21.674Z,58.7
2022-10-25T14:27:38.515Z,58.8
2022-10-25T14:28:55.402Z,58.7
2022-10-25T14:30:12.527Z,58.8
2022-10-25T14:31:29.388Z,58.7
2022-10-25T14:32:46.559Z,58.4
2022-10-25T14:34:03.607Z,58.3
2022-10-25T14:35:20.603Z,58.5
2022-10-25T14:36:37.400Z,58.6
2022-10-25T14:37:54.433Z,58.8
2022-10-25T14:39:11.394Z,58.8
2022-10-25T14:40:28.450Z,58.9
2022-10-25T14:41:45.420Z,58.8
2022-10-25T14:43:03.241Z,58.8
2022-10-25T14:44:20.738Z,58.8
2022-10-25T14:45:39.645Z,58.7
2022-10-25T14:46:56.481Z,58.9
2022-10-25T14:48:13.408Z,58.4
2022-10-25T14:49:30.380Z,57.9
2022-10-25T14:50:47.615Z,57.8
2022-10-25T14:52:04.520Z,57.2
2022-10-25T14:53:21.436Z,56.9
2022-10-25T14:54:38.625Z,56.7
2022-10-25T14:55:55.406Z,56.6
2022-10-25T14:57:12.429Z,56.6
2022-10-25T14:58:29.432Z,56.5
2022-10-25T14:59:46.460Z,56.3
2022-10-25T15:01:03.508Z,56.1
2022-10-25T15:02:20.455Z,55.4
2022-10-25T15:03:37.542Z,54.9
2022-10-25T15:04:54.490Z,54.8
2022-10-25T15:06:11.559Z,54.8
2022-10-25T15:07:28.560Z,54.9
2022-10-25T15:08:49.303Z,55.2
2022-10-25T15:10:02.498Z,55.8
2022-10-25T15:11:19.418Z,56.6
2022-10-25T15:12:36.421Z,57.3
2022-10-25T15:13:53.452Z,57.5
2022-10-25T15:15:10.559Z,57.8
2022-10-25T15:16:27.463Z,58.7
2022-10-25T15:17:44.547Z,59.1
2022-10-25T15:19:01.449Z,59.3
2022-10-25T15:20:18.429Z,59.6
2022-10-25T15:21:35.478Z,59.8
2022-10-25T15:22:52.664Z,59.7
2022-10-25T15:24:09.461Z,59.5
2022-10-25T15:25:26.407Z,59.2
2022-10-25T15:26:43.469Z,59.2
2022-10-25T15:28:00.587Z,59.4
2022-10-25T15:29:17.431Z,59.4
2022-10-25T15:30:35.514Z,59.5
2022-10-25T15:31:52.452Z,59.6
2022-10-25T15:33:09.566Z,59.6
2022-10-25T15:34:26.472Z,59.6
2022-10-25T15:35:43.449Z,59.8
2022-10-25T15:37:00.555Z,60.1
2022-10-25T15:38:17.507Z,60.2
2022-10-25T15:39:34.486Z,60.3
2022-10-25T15:40:51.566Z,60.4
2022-10-25T15:42:09.419Z,60.3
2022-10-25T15:43:25.757Z,60.3
2022-10-25T15:44:42.645Z,60.5
2022-10-25T15:45:59.525Z,60.9
2022-10-25T15:47:16.708Z,61.2
2022-10-25T15:48:33.778Z,61.4
2022-10-25T15:49:50.762Z,61.4
2022-10-25T15:51:07.873Z,61.5
2022-10-25T15:52:27.736Z,61.4
2022-10-25T15:53:44.509Z,61.5
2022-10-25T15:55:01.777Z,61.8
2022-10-25T15:56:19.015Z,62.2
2022-10-25T15:57:36.510Z,62.4
2022-10-25T15:58:53.481Z,62.5
2022-10-25T16:00:10.574Z,62.4
2022-10-25T16:07:05.510Z,61.9
2022-10-25T16:12:02.540Z,61.3
2022-10-25T16:13:19.503Z,61.2
2022-10-25T16:14:36.464Z,61.4
2022-10-25T16:15:53.495Z,61.4
2022-10-25T16:17:10.612Z,61.3
2022-10-25T16:18:27.715Z,61.3
2022-10-25T16:19:44.510Z,61.3
2022-10-25T16:21:01.496Z,61.3
2022-10-25T16:22:18.524Z,61.6
2022-10-25T16:23:35.575Z,61.9
2022-10-25T16:24:52.557Z,62.3
2022-10-25T16:26:09.497Z,62.8
2022-10-25T16:27:26.566Z,63.1
2022-10-25T16:28:43.584Z,63.6
2022-10-25T16:30:00.562Z,63.9
2022-10-25T16:31:17.547Z,64.2
2022-10-25T16:32:35.022Z,64.6
2022-10-25T16:33:51.526Z,65
2022-10-25T16:35:08.586Z,65
2022-10-25T16:36:25.565Z,64.9
2022-10-25T16:37:42.842Z,64.6
2022-10-25T16:38:59.563Z,64.4
2022-10-25T16:40:16.575Z,64
2022-10-25T16:41:33.561Z,63.6
2022-10-25T16:42:51.012Z,63.3
2022-10-25T16:44:07.528Z,63.2
2022-10-25T16:45:24.551Z,63.1
2022-10-25T16:46:41.559Z,63
2022-10-25T16:47:58.618Z,62.8
2022-10-25T16:49:15.573Z,62.7
2022-10-25T16:50:32.573Z,62.7
2022-10-25T16:51:49.607Z,62.6
2022-10-25T16:53:06.581Z,62.6
2022-10-25T16:54:24.315Z,62.5
2022-10-25T16:55:40.627Z,62.5
2022-10-25T16:56:57.615Z,62.5
2022-10-25T16:58:14.637Z,62.5
2022-10-25T16:59:31.569Z,62.5
2022-10-25T17:00:48.637Z,62.8
2022-10-25T17:02:05.657Z,63.2
2022-10-25T17:03:22.631Z,63.5
2022-10-25T17:04:39.597Z,63.6
2022-10-25T17:05:56.592Z,63.7
2022-10-25T17:07:13.573Z,63.5
2022-10-25T17:08:30.606Z,63.5
2022-10-25T17:09:47.579Z,63.5
2022-10-25T17:11:04.617Z,63.5
2022-10-25T17:12:21.608Z,63.5
2022-10-25T17:13:38.653Z,63.5
2022-10-25T17:14:55.712Z,63.6
2022-10-25T17:16:12.642Z,63.7
2022-10-25T17:17:29.615Z,63.9
2022-10-25T17:18:46.647Z,64.1
2022-10-25T17:20:03.714Z,64.3
2022-10-25T17:21:20.614Z,64.3
2022-10-25T17:22:37.604Z,64.4